Accueil
METAR-TAF:

METAR-TAF

Aéroports :

Antofagasta, Chili

Aéroport d'Antofagasta

latitude: 23-26S, longitude: 070-26W, altitude: 135 m

Observation

Le bulletin a été fait il y a 25 minutes, à 10:00 UTC
Vent 3 kt de est
Température 18°C
Humidité 73%
Pression 1015 hPa
Visibilité 10 km ou plus
pas de nuages en-dessous de 1500 mètres et pas de cumulonimbus.

METAR: SCFA 241000Z 10003KT CAVOK 18/13 Q1015 NOSIG

Heure: 07:25 (10:25 UTC)

Prévision

Le bulletin a été fait il y a 5 heures et 55 minutes, à 04:30 UTC
Prévision valable du 24 à 06 UTC au 25 à 06 UTC
Vent 4 kt de sud
Visibilité 10 km ou plus
Quelques nuages à une hauteur de 2500 ft
Evoluant progressivement
du 24 à 15 UTC au 24 à 17 UTC
Vent 13 kt de sud-ouest
Evoluant progressivement
du 24 à 23 UTC au 25 à 01 UTC
Vent 4 kt de sud

TAF: SCFA 240430Z 2406/2506 18004KT 9999 FEW025 TN18/2406Z TX23/2418Z BECMG 2415/2417 22013KT BECMG 2423/2501 18004KT

Observations et prévisions météorologiques de plus de 4000 aéroports (messages METAR et TAF).

Les stations disponibles sont représentées par des disques jaunes et rouges sur la carte.

Passer la souris dessus pour voir le nom de la station.

Cliquer dessus pour voir les observations et prévisions météorologiques.

Pour changer de carte: cliquez sur les boutons verts avec une croix noire pour zoomer, sur le bouton vert avec un tiret pour effectuer un zoom arrière, ou sur les flèches vertes pour les cartes adjacentes.


METAR-TAF: